Time;durP1;ratioP1;P1;durP2;ratioP2;P2;SDS_P1;SDS_P2;PMS_P1;PMS_P2;Temp;Humidity;BMP_temperature;BMP_pressure;BME280_temperature;BME280_humidity;BME280_pressure;Samples;Min_cycle;Max_cycle;Signal;HPM_P1;HPM_P2
2023/01/29 00:01:58;;;;;;;4.90;2.70;;;-0.40;99.90;;;-1.08;100.00;98832.75;4959774;28;20050;-68
2023/01/29 00:04:25;;;;;;;5.65;2.65;;;-0.40;99.90;;;-1.01;100.00;98834.63;4939824;28;20078;-68
2023/01/29 00:06:52;;;;;;;5.25;2.25;;;-0.40;99.90;;;-0.88;100.00;98834.09;4961500;28;20049;-69
2023/01/29 00:09:19;;;;;;;7.22;2.85;;;-0.30;99.90;;;-0.94;100.00;98831.38;4943600;28;20501;-69
2023/01/29 00:11:46;;;;;;;7.07;2.30;;;-0.30;99.90;;;-0.90;100.00;98828.09;4974878;28;20039;-69
2023/01/29 00:14:13;;;;;;;5.15;2.47;;;-0.30;99.90;;;-0.93;100.00;98829.72;4972591;28;20051;-68
2023/01/29 00:16:40;;;;;;;4.95;2.15;;;-0.20;99.90;;;-0.72;100.00;98824.25;4974104;28;20130;-69
2023/01/29 00:19:07;;;;;;;4.05;2.40;;;-0.20;99.90;;;-0.71;100.00;98825.97;4963424;28;20705;-68
2023/01/29 00:21:35;;;;;;;7.55;2.92;;;-0.20;99.90;;;-0.81;100.00;98821.50;4945862;28;20047;-69
2023/01/29 00:24:02;;;;;;;4.32;2.10;;;-0.10;99.90;;;-0.78;100.00;98821.56;4961412;28;20157;-69
2023/01/29 00:26:29;;;;;;;3.72;2.20;;;-0.10;99.90;;;-0.75;100.00;98811.41;4962966;28;20497;-69
2023/01/29 00:28:59;;;;;;;3.05;2.05;;;-0.10;99.90;;;-0.76;100.00;98819.91;4961342;28;20418;-69
2023/01/29 00:31:26;;;;;;;4.15;2.50;;;-0.10;99.90;;;-0.86;100.00;98812.06;4966342;28;20047;-69
2023/01/29 00:33:53;;;;;;;4.80;1.95;;;-0.20;99.90;;;-0.94;100.00;98808.44;4933799;28;20054;-69
2023/01/29 00:36:21;;;;;;;3.97;1.88;;;-0.20;99.90;;;-0.78;100.00;98807.13;4959799;28;20051;-69
2023/01/29 00:38:57;;;;;;;6.22;2.45;;;-0.20;99.90;;;-0.94;100.00;98807.59;4945465;28;20061;-68
2023/01/29 00:47:29;;;;;;;5.55;2.30;;;-0.20;99.90;;;-1.18;100.00;98824.03;4958022;28;20118;-68
2023/01/29 00:49:55;;;;;;;4.85;2.53;;;-0.40;99.90;;;-1.29;100.00;98821.22;4947247;28;20047;-69
2023/01/29 00:52:23;;;;;;;4.57;1.75;;;-0.50;99.90;;;-1.12;100.00;98821.66;4961846;28;20094;-69
2023/01/29 00:54:59;;;;;;;6.57;2.72;;;-0.40;99.90;;;-0.93;100.00;98820.38;4963464;28;20505;-69
2023/01/29 00:57:29;;;;;;;4.45;2.92;;;-0.40;99.90;;;-1.00;100.00;98826.19;4945635;28;20523;-69
2023/01/29 00:59:56;;;;;;;7.80;3.45;;;-0.40;99.90;;;-1.34;100.00;98827.91;4973137;28;20788;-69
2023/01/29 01:05:16;;;;;;;3.95;2.83;;;-0.60;99.90;;;-1.43;100.00;98837.88;4963234;28;20047;-68
2023/01/29 01:07:50;;;;;;;6.10;3.47;;;-0.70;99.90;;;-1.51;100.00;98840.19;4943946;28;20078;-69
2023/01/29 01:10:31;;;;;;;4.60;2.42;;;-0.70;99.90;;;-1.60;100.00;98847.59;4941652;28;20043;-68
2023/01/29 01:13:02;;;;;;;3.83;2.30;;;-0.60;99.90;;;-1.58;100.00;98838.31;4943138;28;20050;-69
2023/01/29 01:15:33;;;;;;;5.18;2.53;;;-0.70;99.90;;;-1.69;100.00;98842.28;4959515;28;20145;-69
2023/01/29 01:18:02;;;;;;;4.07;2.58;;;-0.70;99.90;;;-1.63;100.00;98833.94;4945772;28;20613;-68
2023/01/29 01:20:33;;;;;;;4.72;2.65;;;-0.80;99.90;;;-1.55;100.00;98835.00;4945374;28;20536;-69
2023/01/29 01:23:00;;;;;;;6.05;2.40;;;-0.80;99.90;;;-1.48;100.00;98839.44;4961415;28;20061;-69
2023/01/29 01:25:27;;;;;;;6.15;2.28;;;-0.70;99.90;;;-1.49;100.00;98845.34;4963345;28;20149;-69
2023/01/29 01:27:56;;;;;;;5.38;2.25;;;-0.70;99.90;;;-1.45;100.00;98846.28;4959150;28;20058;-69
2023/01/29 01:30:24;;;;;;;4.65;2.72;;;-0.70;99.90;;;-1.50;100.00;98836.84;4962092;28;20130;-68
2023/01/29 01:32:52;;;;;;;3.70;2.08;;;-0.70;99.90;;;-1.35;100.00;98838.91;4957349;28;20078;-68
2023/01/29 01:35:19;;;;;;;5.03;2.38;;;-0.60;99.90;;;-1.54;100.00;98835.03;4959521;28;20123;-68
2023/01/29 01:37:46;;;;;;;5.30;2.72;;;-0.60;99.90;;;-1.53;100.00;98824.03;4960954;28;20050;-68
2023/01/29 01:40:17;;;;;;;11.30;3.05;;;-0.70;99.90;;;-1.67;100.00;98833.00;4940249;28;20061;-69
2023/01/29 01:42:57;;;;;;;4.63;2.70;;;-0.80;99.90;;;-1.70;100.00;98841.41;4956125;28;20121;-68
2023/01/29 01:45:35;;;;;;;4.40;2.65;;;-0.90;99.90;;;-1.59;100.00;98830.66;4959218;28;20080;-68
2023/01/29 01:48:22;;;;;;;8.50;2.90;;;-0.80;99.90;;;-1.58;100.00;98822.19;4946281;28;21605;-69
2023/01/29 01:51:02;;;;;;;6.45;2.72;;;-0.80;99.90;;;-1.66;100.00;98824.56;4941043;28;20039;-69
2023/01/29 01:53:37;;;;;;;4.97;2.83;;;-0.90;99.90;;;-1.65;100.00;98812.69;4948558;28;20047;-69
2023/01/29 01:56:12;;;;;;;6.05;2.97;;;-0.80;99.90;;;-1.69;100.00;98816.81;4961216;28;20043;-69
2023/01/29 01:58:49;;;;;;;6.18;3.20;;;-0.80;99.90;;;-1.66;100.00;98821.16;4961531;28;20057;-68
2023/01/29 02:01:17;;;;;;;3.80;2.38;;;-0.80;99.90;;;-1.62;100.00;98817.84;4964856;28;20065;-69
2023/01/29 02:12:15;;;;;;;4.03;2.63;;;-0.70;99.90;;;-1.13;100.00;98811.41;4952201;28;20081;-69
2023/01/29 02:14:43;;;;;;;4.20;2.40;;;-0.60;99.90;;;-1.30;100.00;98803.34;4980456;28;20147;-69
2023/01/29 02:17:16;;;;;;;6.82;3.80;;;-0.50;99.90;;;-1.19;100.00;98804.47;4974014;28;20066;-69
2023/01/29 02:20:12;;;;;;;3.88;2.47;;;-0.60;99.90;;;-1.39;100.00;98804.00;4953783;28;20051;-69
2023/01/29 02:22:55;;;;;;;4.82;3.05;;;-0.60;99.90;;;-1.45;100.00;98805.56;4977258;28;20173;-69
2023/01/29 02:25:47;;;;;;;7.35;2.75;;;-0.70;99.90;;;-1.48;100.00;98796.16;4950091;28;20146;-68
2023/01/29 02:28:47;;;;;;;5.45;2.22;;;-0.70;99.90;;;-1.51;100.00;98790.97;4966003;28;20149;-68
2023/01/29 02:31:53;;;;;;;6.90;2.22;;;-0.80;99.90;;;-1.44;100.00;98787.75;4935778;28;20062;-68
2023/01/29 02:37:34;;;;;;;5.65;2.58;;;-0.70;99.90;;;-1.57;100.00;98778.09;4965452;28;20078;-69
2023/01/29 02:40:15;;;;;;;6.50;2.42;;;-0.80;99.90;;;-1.60;100.00;98776.31;4978632;28;20055;-69
2023/01/29 02:43:14;;;;;;;7.18;2.85;;;-0.90;99.90;;;-1.72;100.00;98779.41;4964097;28;20057;-68
2023/01/29 02:46:11;;;;;;;5.97;2.60;;;-0.90;99.90;;;-1.77;100.00;98769.94;4958936;28;20845;-68
2023/01/29 02:49:02;;;;;;;4.75;2.80;;;-0.90;99.90;;;-1.57;100.00;98775.56;4944577;28;20043;-68
2023/01/29 02:51:44;;;;;;;4.30;2.47;;;-0.90;99.90;;;-1.58;100.00;98761.94;4963127;28;20048;-69
2023/01/29 02:54:23;;;;;;;5.95;3.30;;;-0.90;99.90;;;-1.87;100.00;98761.22;4977186;28;20078;-69
2023/01/29 02:57:04;;;;;;;3.30;2.08;;;-1.10;99.90;;;-1.81;100.00;98757.97;4978074;28;20057;-68
2023/01/29 02:59:48;;;;;;;4.20;2.10;;;-1.10;99.90;;;-1.63;100.00;98758.44;4976257;28;20051;-68
2023/01/29 03:02:33;;;;;;;6.95;2.22;;;-1.00;99.90;;;-1.72;100.00;98759.06;4949774;28;20058;-69
2023/01/29 03:05:07;;;;;;;6.68;2.65;;;-1.00;99.90;;;-1.82;100.00;98749.47;4960192;28;20054;-68
2023/01/29 03:07:41;;;;;;;5.32;2.63;;;-1.00;99.90;;;-1.78;100.00;98756.38;4933910;28;20050;-69
2023/01/29 03:10:56;;;;;;;6.05;3.03;;;-1.10;99.90;;;-1.97;100.00;98749.06;4974368;28;20058;-69
2023/01/29 03:13:42;;;;;;;5.18;2.63;;;-1.10;99.90;;;-1.73;100.00;98764.97;4941808;28;20564;-69
2023/01/29 03:16:19;;;;;;;5.65;2.58;;;-1.10;99.90;;;-1.76;100.00;98776.75;4964721;28;20402;-69
2023/01/29 03:19:01;;;;;;;5.15;2.83;;;-1.10;99.90;;;-2.04;100.00;98780.28;4962431;28;20042;-69
2023/01/29 03:21:50;;;;;;;5.07;3.00;;;-1.30;99.90;;;-2.03;100.00;98785.41;4975739;28;20055;-69
2023/01/29 03:33:56;;;;;;;6.63;3.55;;;-1.30;99.90;;;-2.32;100.00;98795.63;4962679;28;20402;-68
2023/01/29 03:36:44;;;;;;;5.00;2.63;;;-1.40;99.90;;;-2.11;100.00;98808.09;4978772;28;20170;-69
2023/01/29 03:39:14;;;;;;;3.72;2.08;;;-1.40;99.90;;;-2.08;100.00;98809.84;4976664;28;20069;-68
2023/01/29 03:41:52;;;;;;;5.40;3.08;;;-1.30;99.90;;;-1.86;100.00;98811.28;4947804;28;20192;-68
2023/01/29 03:45:15;;;;;;;8.68;2.55;;;-1.20;99.90;;;-1.88;100.00;98809.53;4961778;28;20097;-68
2023/01/29 03:48:06;;;;;;;3.75;2.13;;;-1.20;99.90;;;-1.78;100.00;98803.84;4962074;28;20043;-68
2023/01/29 03:51:14;;;;;;;3.33;1.88;;;-1.10;99.90;;;-1.82;100.00;98818.19;4965295;28;20053;-69
2023/01/29 03:54:25;;;;;;;5.25;2.40;;;-1.10;99.90;;;-1.71;100.00;98815.91;4949619;28;20054;-69
2023/01/29 03:57:30;;;;;;;7.03;2.40;;;-1.00;99.90;;;-1.61;100.00;98824.66;4931565;28;20074;-69
2023/01/29 04:00:09;;;;;;;4.35;2.67;;;-1.00;99.90;;;-1.62;100.00;98828.91;4974595;28;20042;-68
2023/01/29 04:02:57;;;;;;;4.70;2.95;;;-0.90;99.90;;;-1.66;100.00;98837.28;4962069;28;20065;-69
2023/01/29 04:05:32;;;;;;;5.63;3.17;;;-0.90;99.90;;;-1.60;100.00;98834.88;4961011;28;20066;-68
2023/01/29 04:08:10;;;;;;;4.68;2.25;;;-0.90;99.90;;;-1.59;100.00;98828.97;4948742;28;20062;-69
2023/01/29 04:10:41;;;;;;;3.72;2.42;;;-0.90;99.90;;;-1.44;100.00;98822.53;4977130;28;20043;-69
2023/01/29 04:13:11;;;;;;;6.28;4.15;;;-0.80;99.90;;;-1.63;100.00;98829.72;4945291;28;20144;-68
2023/01/29 04:15:47;;;;;;;5.40;3.22;;;-0.80;99.90;;;-1.74;100.00;98820.94;4950684;28;20502;-69
2023/01/29 04:18:14;;;;;;;5.57;2.97;;;-0.90;99.90;;;-1.67;100.00;98815.16;4943751;28;20062;-68
2023/01/29 04:20:43;;;;;;;5.05;2.72;;;-0.90;99.90;;;-1.67;100.00;98814.31;4959232;28;20051;-68
2023/01/29 04:23:25;;;;;;;6.38;2.85;;;-0.90;99.90;;;-1.75;100.00;98814.97;4945654;28;20537;-68
2023/01/29 04:26:32;;;;;;;4.43;2.30;;;-0.90;99.90;;;-1.59;100.00;98813.69;4961249;28;20046;-69
2023/01/29 04:29:26;;;;;;;4.85;2.33;;;-0.80;99.90;;;-1.57;100.00;98806.97;4949630;28;20129;-69
2023/01/29 04:32:13;;;;;;;4.72;2.15;;;-0.90;99.90;;;-1.64;100.00;98809.28;4964081;28;20046;-69
2023/01/29 04:35:14;;;;;;;6.35;2.28;;;-0.90;99.90;;;-1.54;100.00;98796.00;4973398;28;20047;-69
2023/01/29 04:37:49;;;;;;;3.92;2.00;;;-0.90;99.90;;;-1.73;100.00;98795.53;4959839;28;20522;-69
2023/01/29 04:40:33;;;;;;;5.45;2.45;;;-1.00;99.90;;;-1.82;100.00;98790.19;4975844;28;20055;-68
2023/01/29 04:43:19;;;;;;;5.70;2.42;;;-1.10;99.90;;;-1.74;100.00;98770.88;4976273;28;20463;-68
2023/01/29 04:46:12;;;;;;;4.93;2.40;;;-1.10;99.90;;;-1.79;100.00;98764.81;4958565;28;20458;-68
2023/01/29 04:49:14;;;;;;;4.10;2.58;;;-1.10;99.90;;;-1.83;100.00;98757.91;4947217;28;20051;-68
2023/01/29 04:51:59;;;;;;;4.03;2.22;;;-1.10;99.90;;;-1.74;100.00;98767.47;4963060;28;20047;-69
2023/01/29 04:54:53;;;;;;;4.57;2.30;;;-1.10;99.90;;;-1.70;100.00;98770.13;4947719;28;20510;-68
2023/01/29 04:57:52;;;;;;;6.53;2.30;;;-1.00;99.90;;;-1.71;100.00;98754.81;4958453;28;20053;-68
2023/01/29 05:00:31;;;;;;;3.33;1.85;;;-1.00;99.90;;;-1.63;100.00;98768.59;4944413;28;20051;-68
2023/01/29 05:03:00;;;;;;;4.20;2.25;;;-1.00;99.90;;;-1.55;100.00;98768.78;4960448;28;20058;-69
2023/01/29 05:05:28;;;;;;;4.10;2.53;;;-0.90;99.90;;;-1.55;100.00;98774.75;4976910;28;20078;-69
2023/01/29 05:07:58;;;;;;;4.50;2.92;;;-0.90;99.90;;;-1.69;100.00;98776.09;4947603;28;20051;-69
2023/01/29 05:10:27;;;;;;;4.63;2.70;;;-1.00;99.90;;;-1.75;100.00;98786.97;4947150;28;20649;-68
2023/01/29 05:13:02;;;;;;;4.78;2.60;;;-1.00;99.90;;;-1.83;100.00;98783.38;4971617;28;20122;-68
2023/01/29 05:15:45;;;;;;;5.13;2.63;;;-1.00;99.90;;;-1.77;100.00;98788.63;4976193;28;20046;-68
2023/01/29 05:18:12;;;;;;;4.20;1.88;;;-1.00;99.90;;;-1.87;100.00;98793.44;4944098;28;20059;-69
2023/01/29 05:20:42;;;;;;;4.32;2.63;;;-1.00;99.90;;;-1.80;100.00;98793.66;4973065;28;20763;-68
2023/01/29 05:23:16;;;;;;;5.25;2.00;;;-1.00;99.90;;;-1.85;100.00;98795.19;4949667;28;20053;-68
2023/01/29 05:25:45;;;;;;;7.28;2.72;;;-1.00;99.90;;;-1.83;100.00;98788.47;4960738;28;20058;-68
2023/01/29 05:28:16;;;;;;;4.53;2.50;;;-1.10;99.90;;;-1.72;100.00;98784.50;4930969;28;20517;-68
2023/01/29 05:30:50;;;;;;;5.28;2.72;;;-1.00;99.90;;;-1.67;100.00;98778.69;4946072;28;20138;-68
2023/01/29 05:33:19;;;;;;;4.75;3.08;;;-1.00;99.90;;;-1.64;100.00;98784.72;4945793;28;20414;-68
2023/01/29 05:35:48;;;;;;;5.88;2.30;;;-0.90;99.90;;;-1.74;100.00;98787.84;4973898;28;20054;-69
2023/01/29 05:38:16;;;;;;;3.85;2.30;;;-0.90;99.90;;;-1.48;100.00;98786.81;4959299;28;20407;-69
2023/01/29 05:40:43;;;;;;;8.05;3.17;;;-0.90;99.90;;;-1.50;100.00;98790.16;4972201;28;20043;-68
2023/01/29 05:43:20;;;;;;;6.93;3.20;;;-0.80;99.90;;;-1.55;100.00;98804.44;4975360;28;20059;-67
2023/01/29 05:45:58;;;;;;;6.65;3.17;;;-0.80;99.90;;;-1.81;100.00;98799.53;4932064;28;20054;-69
2023/01/29 05:48:27;;;;;;;5.13;3.05;;;-1.00;99.90;;;-1.88;100.00;98789.16;4962773;28;20063;-69
2023/01/29 05:51:03;;;;;;;6.85;2.95;;;-1.00;99.90;;;-1.81;100.00;98779.19;4946524;28;20051;-69
2023/01/29 05:53:31;;;;;;;3.50;2.28;;;-1.00;99.90;;;-1.71;100.00;98783.69;4948059;28;20492;-67
2023/01/29 05:56:03;;;;;;;3.85;2.20;;;-1.00;99.90;;;-2.02;100.00;98778.63;4958670;28;20051;-69
2023/01/29 05:58:31;;;;;;;5.63;2.47;;;-1.00;99.90;;;-1.79;100.00;98777.53;4962867;28;20489;-69
2023/01/29 06:01:13;;;;;;;4.28;2.50;;;-1.00;99.90;;;-1.63;100.00;98777.94;4971881;28;20085;-69
2023/01/29 06:03:40;;;;;;;7.40;2.92;;;-0.90;99.90;;;-1.75;100.00;98773.41;4962195;28;20054;-69
2023/01/29 06:06:08;;;;;;;8.00;3.20;;;-0.90;99.90;;;-1.63;100.00;98767.75;4955966;28;20380;-67
2023/01/29 06:08:35;;;;;;;7.55;3.13;;;-0.90;99.90;;;-1.73;100.00;98775.16;4960444;28;20050;-69
2023/01/29 06:11:03;;;;;;;5.90;3.42;;;-0.90;99.90;;;-1.66;100.00;98781.28;4953427;28;20047;-69
2023/01/29 06:13:30;;;;;;;6.18;3.20;;;-1.00;99.90;;;-2.12;100.00;98787.72;4977426;28;20042;-67
2023/01/29 06:15:57;;;;;;;4.85;2.85;;;-1.20;99.90;;;-2.21;100.00;98783.22;4958274;28;20050;-67
2023/01/29 06:18:24;;;;;;;8.15;2.97;;;-1.20;99.90;;;-2.12;100.00;98788.56;4945170;28;20070;-67
2023/01/29 06:20:51;;;;;;;6.50;2.63;;;-1.30;99.90;;;-2.09;100.00;98792.00;4958302;28;20042;-69
2023/01/29 06:23:18;;;;;;;5.97;2.67;;;-1.30;99.90;;;-1.94;100.00;98793.28;4960093;28;20047;-67
2023/01/29 06:25:45;;;;;;;4.45;2.60;;;-1.20;99.90;;;-1.91;100.00;98792.50;4959222;28;20047;-67
2023/01/29 06:28:12;;;;;;;3.78;1.80;;;-1.20;99.90;;;-1.88;100.00;98789.16;4945644;28;20150;-67
2023/01/29 06:30:39;;;;;;;4.78;3.15;;;-1.10;99.90;;;-1.83;100.00;98791.00;4960482;28;20129;-69
2023/01/29 06:33:06;;;;;;;6.07;3.33;;;-1.10;99.90;;;-1.83;100.00;98775.72;4959968;28;20843;-66
2023/01/29 06:35:33;;;;;;;4.75;2.58;;;-1.10;99.90;;;-1.94;100.00;98772.94;4974105;28;20433;-68
2023/01/29 06:38:00;;;;;;;4.78;2.72;;;-1.10;99.90;;;-1.85;100.00;98781.59;4974829;28;20082;-68
2023/01/29 06:40:27;;;;;;;4.97;2.97;;;-1.20;99.90;;;-1.77;100.00;98780.13;4958994;28;20055;-68
2023/01/29 06:42:54;;;;;;;6.20;2.85;;;-1.20;99.90;;;-2.01;100.00;98783.75;4958700;28;20060;-68
2023/01/29 06:45:21;;;;;;;9.70;3.30;;;-1.10;99.90;;;-1.75;100.00;98784.44;4944093;28;20375;-69
2023/01/29 06:47:48;;;;;;;5.70;3.47;;;-1.10;99.90;;;-1.87;100.00;98778.16;4962918;28;20095;-68
2023/01/29 06:50:15;;;;;;;8.30;3.47;;;-1.20;99.90;;;-2.03;100.00;98787.06;4963929;28;20502;-68
2023/01/29 06:52:43;;;;;;;5.20;2.90;;;-1.30;99.90;;;-1.96;100.00;98789.84;4952427;28;20098;-68
2023/01/29 06:55:10;;;;;;;3.95;2.42;;;-1.30;99.90;;;-1.86;100.00;98782.44;4963634;28;20467;-68
2023/01/29 06:57:37;;;;;;;4.90;2.85;;;-1.30;99.90;;;-2.04;100.00;98786.22;4961100;28;20061;-68
2023/01/29 07:00:05;;;;;;;4.90;2.50;;;-1.30;99.90;;;-2.11;100.00;98772.47;4962653;28;20058;-68
2023/01/29 07:02:32;;;;;;;4.60;2.97;;;-1.30;99.90;;;-1.97;100.00;98761.78;4962830;28;20142;-68
2023/01/29 07:04:59;;;;;;;7.68;2.72;;;-1.30;99.90;;;-1.90;100.00;98774.72;4965726;28;21030;-68
2023/01/29 07:07:26;;;;;;;6.50;3.17;;;-1.20;99.90;;;-1.74;100.00;98773.41;4947543;28;20410;-69
2023/01/29 07:09:53;;;;;;;10.70;3.90;;;-1.20;99.90;;;-1.78;100.00;98776.72;4963480;28;20505;-69
2023/01/29 07:12:20;;;;;;;6.88;3.17;;;-1.20;99.90;;;-1.85;100.00;98779.06;4964093;28;20050;-69
2023/01/29 07:14:47;;;;;;;6.47;3.63;;;-1.20;99.90;;;-2.01;100.00;98783.75;4964598;28;20129;-68
2023/01/29 07:17:14;;;;;;;6.03;3.90;;;-1.30;99.90;;;-2.01;100.00;98782.88;4950514;28;20058;-68
2023/01/29 07:19:41;;;;;;;6.05;3.95;;;-1.40;99.90;;;-2.04;100.00;98798.09;4966429;28;20051;-68
2023/01/29 07:22:08;;;;;;;7.93;3.13;;;-1.50;99.90;;;-2.16;100.00;98791.84;4962428;28;20051;-68
2023/01/29 07:24:37;;;;;;;6.72;3.25;;;-1.60;99.90;;;-2.15;100.00;98792.69;4961680;28;20050;-68
2023/01/29 07:27:04;;;;;;;8.23;3.97;;;-1.60;99.90;;;-2.07;100.00;98806.50;4964291;28;20046;-68
2023/01/29 07:29:31;;;;;;;7.97;3.67;;;-1.60;99.90;;;-2.15;100.00;98801.19;4964652;28;20047;-68
2023/01/29 07:31:58;;;;;;;6.10;3.22;;;-1.70;99.90;;;-2.33;100.00;98801.56;4942085;28;20051;-68
2023/01/29 07:34:25;;;;;;;6.65;3.38;;;-1.80;99.90;;;-2.33;100.00;98798.13;4965314;28;20118;-68
2023/01/29 07:36:53;;;;;;;6.85;3.83;;;-1.80;99.90;;;-2.44;100.00;98802.03;4944569;28;20044;-68
2023/01/29 07:39:20;;;;;;;6.40;3.38;;;-1.90;99.90;;;-2.47;100.00;98801.97;4951544;28;20069;-68
2023/01/29 07:41:47;;;;;;;8.93;3.92;;;-2.00;99.90;;;-2.57;100.00;98794.06;4977548;28;20055;-68
2023/01/29 07:44:15;;;;;;;5.07;3.13;;;-2.00;99.90;;;-2.61;100.00;98799.88;4963468;28;20054;-68
2023/01/29 07:46:42;;;;;;;12.05;3.97;;;-2.10;99.90;;;-2.64;100.00;98809.13;4950675;28;20058;-68
2023/01/29 07:49:09;;;;;;;7.50;3.53;;;-2.10;99.90;;;-2.62;100.00;98813.41;4946542;28;20082;-68
2023/01/29 07:51:36;;;;;;;9.77;3.22;;;-2.10;99.90;;;-2.81;100.00;98817.06;4960933;28;20584;-69
2023/01/29 07:54:03;;;;;;;6.70;3.75;;;-2.10;99.90;;;-2.84;100.00;98818.69;4945335;28;20168;-68
2023/01/29 07:56:30;;;;;;;7.80;3.90;;;-2.10;99.90;;;-2.97;100.00;98820.81;4961699;28;21009;-69
2023/01/29 07:58:57;;;;;;;5.43;3.00;;;-2.20;99.90;;;-3.13;100.00;98813.53;4977353;28;20074;-68
2023/01/29 08:01:24;;;;;;;6.50;3.40;;;-2.20;99.90;;;-3.05;100.00;98822.28;4945651;28;20055;-69
2023/01/29 08:03:51;;;;;;;7.90;3.10;;;-2.30;99.90;;;-2.99;100.00;98822.47;4959874;28;20043;-68
2023/01/29 08:06:18;;;;;;;6.20;3.75;;;-2.30;99.90;;;-3.31;100.00;98833.28;4947369;28;20089;-68
2023/01/29 08:08:45;;;;;;;7.15;3.90;;;-2.50;99.90;;;-3.32;100.00;98839.19;4978461;28;20106;-68
2023/01/29 08:11:12;;;;;;;8.27;3.30;;;-2.60;99.90;;;-3.33;100.00;98843.41;4944401;28;20053;-69
2023/01/29 08:13:39;;;;;;;6.28;2.97;;;-2.50;99.90;;;-3.03;100.00;98845.19;4962131;28;20629;-68
2023/01/29 08:16:07;;;;;;;5.05;2.70;;;-2.40;99.90;;;-2.98;100.00;98839.44;4959330;28;20043;-68
2023/01/29 08:18:36;;;;;;;8.60;2.78;;;-2.40;99.90;;;-3.09;100.00;98845.00;4974314;28;20478;-69
2023/01/29 08:21:04;;;;;;;5.82;3.33;;;-2.30;99.90;;;-3.20;100.00;98853.13;4961320;28;20074;-68
2023/01/29 08:23:31;;;;;;;8.38;4.20;;;-2.30;99.90;;;-3.32;100.00;98860.34;4957793;28;20749;-68
2023/01/29 08:25:58;;;;;;;8.90;4.68;;;-2.40;99.90;;;-3.10;100.00;98853.41;4949532;28;20047;-68
2023/01/29 08:28:25;;;;;;;35.47;14.85;;;-2.30;99.90;;;-2.96;100.00;98858.13;4963765;28;20047;-68
2023/01/29 08:30:52;;;;;;;51.83;23.45;;;-2.20;99.90;;;-2.79;100.00;98848.47;4961024;28;20131;-68
2023/01/29 08:33:19;;;;;;;34.83;18.25;;;-2.10;99.90;;;-2.64;100.00;98853.19;4961658;28;20466;-68
2023/01/29 08:36:03;;;;;;;27.77;13.23;;;-2.10;99.90;;;-2.73;100.00;98842.75;4950335;28;20065;-68
2023/01/29 08:38:30;;;;;;;21.50;10.25;;;-2.00;99.90;;;-2.79;100.00;98837.47;4928008;28;20078;-68
2023/01/29 08:40:57;;;;;;;20.70;9.38;;;-1.90;99.90;;;-2.78;100.00;98839.19;4948454;28;20051;-68
2023/01/29 08:43:24;;;;;;;22.65;10.88;;;-1.90;99.90;;;-2.80;100.00;98839.16;4963326;28;20111;-68
2023/01/29 08:45:51;;;;;;;17.45;9.02;;;-1.90;99.90;;;-2.74;100.00;98841.88;4958367;28;20054;-68
2023/01/29 08:48:21;;;;;;;15.90;9.32;;;-1.80;99.90;;;-2.86;100.00;98841.50;4946181;28;20055;-68
2023/01/29 08:50:48;;;;;;;14.57;8.80;;;-1.80;99.90;;;-2.75;100.00;98852.00;4943456;28;20047;-68
2023/01/29 08:53:15;;;;;;;14.20;7.25;;;-1.90;99.90;;;-2.65;100.00;98850.59;4944509;28;20051;-69
2023/01/29 08:55:45;;;;;;;10.38;5.88;;;-1.80;99.90;;;-2.79;100.00;98845.94;4961968;28;20047;-68
2023/01/29 08:58:12;;;;;;;11.15;6.18;;;-1.90;99.90;;;-2.72;100.00;98854.63;4960658;28;20143;-68
2023/01/29 09:00:39;;;;;;;9.50;4.43;;;-1.80;99.90;;;-2.54;100.00;98852.63;4950343;28;20046;-67
2023/01/29 09:03:06;;;;;;;7.85;4.05;;;-1.80;99.90;;;-2.61;100.00;98822.75;4961368;28;20051;-68
2023/01/29 09:05:35;;;;;;;8.93;4.60;;;-1.80;99.90;;;-2.82;100.00;98807.75;4959454;28;20077;-68
2023/01/29 09:08:02;;;;;;;9.38;5.50;;;-1.80;99.90;;;-2.84;100.00;98811.06;4964949;28;20065;-68
2023/01/29 09:10:29;;;;;;;11.40;4.80;;;-1.80;99.90;;;-2.65;100.00;98800.59;4962874;28;20053;-68
2023/01/29 09:12:56;;;;;;;8.60;4.88;;;-1.80;99.90;;;-2.53;100.00;98802.66;4944413;28;20101;-68
2023/01/29 09:15:23;;;;;;;11.23;5.18;;;-1.70;99.90;;;-3.03;100.00;98796.94;4973384;28;20518;-68
2023/01/29 09:17:51;;;;;;;7.47;3.88;;;-1.50;99.90;;;-3.02;100.00;98793.56;4927686;28;20039;-68
2023/01/29 09:20:19;;;;;;;9.57;4.22;;;-1.50;99.90;;;-2.58;100.00;98791.47;4950368;28;20181;-68
2023/01/29 09:22:46;;;;;;;9.95;4.18;;;-1.50;99.90;;;-2.54;100.00;98794.16;4943508;28;20050;-68
2023/01/29 09:25:13;;;;;;;7.55;4.13;;;-1.40;99.90;;;-2.55;100.00;98799.22;4946645;28;20066;-68
2023/01/29 09:27:41;;;;;;;9.73;4.53;;;-1.40;99.90;;;-2.56;100.00;98805.09;4974589;28;20130;-68
2023/01/29 09:30:09;;;;;;;7.93;3.97;;;-1.20;99.90;;;-2.60;100.00;98806.72;4962254;28;20042;-68
2023/01/29 09:32:36;;;;;;;8.00;3.90;;;-1.10;99.90;;;-2.55;100.00;98801.75;4962793;28;20039;-68
2023/01/29 09:35:21;;;;;;;5.18;2.88;;;-1.00;99.90;;;-2.53;100.00;98807.75;4960067;28;20039;-68
2023/01/29 09:37:49;;;;;;;6.32;3.30;;;-0.90;99.90;;;-2.07;100.00;98828.53;4947534;28;20047;-68
2023/01/29 09:40:25;;;;;;;7.65;3.30;;;-0.80;99.90;;;-1.81;100.00;98806.31;4960790;28;20066;-69
2023/01/29 09:43:39;;;;;;;7.03;3.88;;;-0.60;99.90;;;-1.52;100.00;98810.47;4943561;28;20418;-68
2023/01/29 09:46:39;;;;;;;10.50;5.63;;;-0.30;99.90;;;-1.19;100.00;98814.66;4916971;28;20046;-68
2023/01/29 09:49:15;;;;;;;11.02;4.82;;;0.10;99.90;;;-1.72;100.00;98815.06;4949636;28;20129;-68
2023/01/29 09:51:49;;;;;;;6.43;4.20;;;0.40;99.90;;;-1.64;100.00;98814.38;4947421;28;20043;-68
2023/01/29 09:54:24;;;;;;;7.65;4.55;;;0.50;99.90;;;-1.49;100.00;98817.31;4961318;28;20053;-68
2023/01/29 09:56:56;;;;;;;9.82;4.20;;;0.40;99.90;;;-1.55;100.00;98818.06;4946439;28;20051;-69
2023/01/29 09:59:29;;;;;;;8.05;4.43;;;0.40;99.90;;;-0.89;100.00;98813.66;4941828;28;20055;-69
2023/01/29 10:01:59;;;;;;;;;;;0.60;99.90;;;-0.62;100.00;98810.84;4945260;28;20157;-69
2023/01/29 10:04:55;;;;;;;8.27;4.28;;;0.70;99.90;;;-0.39;100.00;98803.69;4958744;28;19941;-68
2023/01/29 10:08:06;;;;;;;6.78;4.60;;;0.90;99.90;;;-0.35;100.00;98802.06;4958044;28;20129;-68
2023/01/29 10:10:47;;;;;;;9.00;4.78;;;1.10;99.90;;;-0.43;100.00;98800.22;4942918;28;20055;-68
2023/01/29 10:13:36;;;;;;;11.40;4.13;;;1.10;99.90;;;-0.44;100.00;98807.84;4946782;28;20047;-67
2023/01/29 10:16:12;;;;;;;7.63;4.05;;;;;;;-1.12;100.00;98819.09;4960006;28;20067;-69
2023/01/29 10:19:00;;;;;;;9.25;4.10;;;1.00;99.90;;;-0.74;100.00;98814.00;4958605;28;20050;-69
2023/01/29 10:22:23;;;;;;;6.20;4.20;;;1.00;99.90;;;-0.43;100.00;98817.25;4946181;28;20190;-69
2023/01/29 10:24:56;;;;;;;10.63;5.00;;;1.00;99.90;;;-0.25;100.00;98811.63;4963481;28;20047;-70
2023/01/29 10:27:32;;;;;;;7.57;4.30;;;1.20;99.90;;;0.03;100.00;98814.75;4970731;28;20055;-68
2023/01/29 10:30:05;;;;;;;6.05;3.63;;;1.40;99.90;;;-0.18;100.00;98813.50;4945137;28;20051;-68
2023/01/29 10:32:36;;;;;;;6.20;4.00;;;1.40;99.90;;;-0.38;100.00;98810.53;4958505;28;20417;-68
2023/01/29 10:35:21;;;;;;;8.82;4.53;;;1.30;99.90;;;-0.46;100.00;98804.41;4944726;28;20042;-68
2023/01/29 10:37:53;;;;;;;6.60;3.78;;;1.20;99.90;;;-0.05;100.00;98799.28;4978983;28;20129;-68
2023/01/29 10:40:47;;;;;;;6.63;3.70;;;1.30;99.90;;;0.24;100.00;98797.25;4947141;28;20401;-67
2023/01/29 10:43:36;;;;;;;6.80;3.63;;;1.30;99.90;;;0.55;100.00;98795.25;4964553;28;20122;-68
2023/01/29 10:46:32;;;;;;;7.13;3.83;;;1.50;99.90;;;0.05;100.00;98788.41;4974241;28;20137;-67
2023/01/29 10:49:31;;;;;;;7.63;3.72;;;1.40;99.90;;;0.04;100.00;98785.81;4964997;28;20047;-67
2023/01/29 10:52:20;;;;;;;6.78;4.40;;;1.30;99.90;;;-0.28;100.00;98769.06;4946270;28;20051;-68
2023/01/29 10:54:59;;;;;;;7.43;4.13;;;0.90;99.90;;;-0.41;100.00;98774.78;4961871;28;20054;-68
2023/01/29 10:58:17;;;;;;;8.00;4.53;;;0.80;99.90;;;-0.41;100.00;98772.22;4961811;28;20071;-67
2023/01/29 11:00:44;;;;;;;8.88;4.20;;;0.60;99.90;;;-0.19;100.00;98780.28;4963157;28;20082;-67
2023/01/29 11:03:21;;;;;;;9.73;4.68;;;0.80;99.90;;;0.13;100.00;98770.69;4944796;28;20166;-67
2023/01/29 11:06:02;;;;;;;8.48;5.07;;;1.00;99.90;;;0.05;100.00;98774.81;4960481;28;20047;-67
2023/01/29 11:09:10;;;;;;;5.38;3.60;;;1.00;99.90;;;-0.02;100.00;98763.63;4942800;28;20161;-68
2023/01/29 11:11:49;;;;;;;10.57;5.57;;;1.30;99.90;;;0.45;100.00;98753.34;4939866;28;20170;-67
2023/01/29 11:14:32;;;;;;;6.72;4.57;;;1.40;99.90;;;-0.27;100.00;98737.63;4955077;28;20121;-68
2023/01/29 11:16:59;;;;;;;7.22;4.95;;;1.30;99.90;;;-0.39;100.00;98736.50;4943440;28;20043;-69